sensor_id;sensor_type;location;lat;lon;timestamp;P1;durP1;ratioP1;P2;durP2;ratioP2
51529;SDS011;37613;51.788;21.582;2022-10-26T00:00:39;52.30;;;31.40;;
51529;SDS011;37613;51.788;21.582;2022-10-26T00:05:01;26.10;;;18.60;;
51529;SDS011;37613;51.788;21.582;2022-10-26T00:09:03;38.20;;;21.10;;
51529;SDS011;37613;51.788;21.582;2022-10-26T00:13:07;22.50;;;17.90;;
51529;SDS011;37613;51.788;21.582;2022-10-26T00:17:12;23.60;;;15.80;;
51529;SDS011;37613;51.788;21.582;2022-10-26T00:21:14;29.70;;;19.30;;
51529;SDS011;37613;51.788;21.582;2022-10-26T00:25:17;34.00;;;21.00;;
51529;SDS011;37613;51.788;21.582;2022-10-26T00:29:20;30.20;;;19.20;;
51529;SDS011;37613;51.788;21.582;2022-10-26T00:37:24;22.70;;;15.60;;
51529;SDS011;37613;51.788;21.582;2022-10-26T00:41:28;25.60;;;16.20;;
51529;SDS011;37613;51.788;21.582;2022-10-26T00:45:34;22.60;;;15.70;;
51529;SDS011;37613;51.788;21.582;2022-10-26T00:49:36;25.10;;;14.60;;
51529;SDS011;37613;51.788;21.582;2022-10-26T00:53:39;25.00;;;16.00;;
51529;SDS011;37613;51.788;21.582;2022-10-26T00:57:41;21.90;;;15.40;;
51529;SDS011;37613;51.788;21.582;2022-10-26T01:01:43;22.50;;;13.90;;
51529;SDS011;37613;51.788;21.582;2022-10-26T01:05:48;24.40;;;14.80;;
51529;SDS011;37613;51.788;21.582;2022-10-26T01:09:50;21.70;;;14.40;;
51529;SDS011;37613;51.788;21.582;2022-10-26T01:13:54;30.00;;;17.00;;
51529;SDS011;37613;51.788;21.582;2022-10-26T01:18:00;29.70;;;15.60;;
51529;SDS011;37613;51.788;21.582;2022-10-26T01:23:05;23.50;;;14.20;;
51529;SDS011;37613;51.788;21.582;2022-10-26T01:31:47;24.20;;;15.90;;
51529;SDS011;37613;51.788;21.582;2022-10-26T01:36:20;22.80;;;14.60;;
51529;SDS011;37613;51.788;21.582;2022-10-26T01:40:33;28.80;;;14.90;;
51529;SDS011;37613;51.788;21.582;2022-10-26T01:44:42;24.80;;;14.90;;
51529;SDS011;37613;51.788;21.582;2022-10-26T01:48:49;20.90;;;15.20;;
51529;SDS011;37613;51.788;21.582;2022-10-26T01:52:54;22.60;;;15.10;;
51529;SDS011;37613;51.788;21.582;2022-10-26T01:56:59;19.10;;;15.10;;
51529;SDS011;37613;51.788;21.582;2022-10-26T02:05:49;18.80;;;14.30;;
51529;SDS011;37613;51.788;21.582;2022-10-26T02:14:23;19.50;;;14.10;;
51529;SDS011;37613;51.788;21.582;2022-10-26T02:18:47;20.90;;;14.30;;
51529;SDS011;37613;51.788;21.582;2022-10-26T02:23:00;19.20;;;13.20;;
51529;SDS011;37613;51.788;21.582;2022-10-26T02:27:07;18.10;;;12.50;;
51529;SDS011;37613;51.788;21.582;2022-10-26T02:31:16;18.70;;;12.90;;
51529;SDS011;37613;51.788;21.582;2022-10-26T02:35:22;21.60;;;13.50;;
51529;SDS011;37613;51.788;21.582;2022-10-26T02:39:30;17.50;;;12.90;;
51529;SDS011;37613;51.788;21.582;2022-10-26T02:43:36;17.80;;;13.10;;
51529;SDS011;37613;51.788;21.582;2022-10-26T02:47:44;22.10;;;13.70;;
51529;SDS011;37613;51.788;21.582;2022-10-26T02:52:06;16.40;;;12.70;;
51529;SDS011;37613;51.788;21.582;2022-10-26T02:56:14;19.20;;;12.80;;
51529;SDS011;37613;51.788;21.582;2022-10-26T03:00:20;20.90;;;12.50;;
51529;SDS011;37613;51.788;21.582;2022-10-26T03:04:29;15.80;;;12.90;;
51529;SDS011;37613;51.788;21.582;2022-10-26T03:08:33;17.60;;;12.60;;
51529;SDS011;37613;51.788;21.582;2022-10-26T03:12:35;21.40;;;13.10;;
51529;SDS011;37613;51.788;21.582;2022-10-26T03:16:36;20.20;;;13.30;;
51529;SDS011;37613;51.788;21.582;2022-10-26T03:20:38;18.80;;;12.80;;
51529;SDS011;37613;51.788;21.582;2022-10-26T03:24:40;26.10;;;16.00;;
51529;SDS011;37613;51.788;21.582;2022-10-26T03:28:42;24.80;;;14.40;;
51529;SDS011;37613;51.788;21.582;2022-10-26T03:32:44;23.30;;;15.70;;
51529;SDS011;37613;51.788;21.582;2022-10-26T03:36:46;25.30;;;15.30;;
51529;SDS011;37613;51.788;21.582;2022-10-26T03:40:51;22.90;;;15.40;;
51529;SDS011;37613;51.788;21.582;2022-10-26T03:48:54;22.30;;;15.40;;
51529;SDS011;37613;51.788;21.582;2022-10-26T03:52:56;19.60;;;15.10;;
51529;SDS011;37613;51.788;21.582;2022-10-26T03:56:58;23.60;;;15.30;;
51529;SDS011;37613;51.788;21.582;2022-10-26T04:01:00;27.10;;;14.80;;
51529;SDS011;37613;51.788;21.582;2022-10-26T04:05:02;24.20;;;14.60;;
51529;SDS011;37613;51.788;21.582;2022-10-26T04:09:04;23.80;;;13.90;;
51529;SDS011;37613;51.788;21.582;2022-10-26T04:13:09;22.90;;;14.70;;
51529;SDS011;37613;51.788;21.582;2022-10-26T04:17:12;23.40;;;14.50;;
51529;SDS011;37613;51.788;21.582;2022-10-26T04:21:14;26.40;;;14.60;;
51529;SDS011;37613;51.788;21.582;2022-10-26T04:25:16;20.60;;;13.40;;
51529;SDS011;37613;51.788;21.582;2022-10-26T04:29:18;23.20;;;13.70;;
51529;SDS011;37613;51.788;21.582;2022-10-26T04:33:20;23.90;;;13.80;;
51529;SDS011;37613;51.788;21.582;2022-10-26T04:37:22;19.90;;;14.00;;
51529;SDS011;37613;51.788;21.582;2022-10-26T04:41:24;27.50;;;20.10;;
51529;SDS011;37613;51.788;21.582;2022-10-26T04:45:26;31.20;;;26.80;;
51529;SDS011;37613;51.788;21.582;2022-10-26T04:49:31;20.40;;;16.40;;
51529;SDS011;37613;51.788;21.582;2022-10-26T04:53:33;27.30;;;17.90;;
51529;SDS011;37613;51.788;21.582;2022-10-26T04:57:35;21.30;;;14.80;;
51529;SDS011;37613;51.788;21.582;2022-10-26T05:01:37;26.40;;;16.20;;
51529;SDS011;37613;51.788;21.582;2022-10-26T05:05:38;21.40;;;14.70;;
51529;SDS011;37613;51.788;21.582;2022-10-26T05:09:40;20.40;;;13.60;;
51529;SDS011;37613;51.788;21.582;2022-10-26T05:13:43;19.80;;;14.20;;
51529;SDS011;37613;51.788;21.582;2022-10-26T05:17:49;21.60;;;15.00;;
51529;SDS011;37613;51.788;21.582;2022-10-26T05:21:59;20.70;;;15.10;;
51529;SDS011;37613;51.788;21.582;2022-10-26T05:26:01;22.40;;;15.00;;
51529;SDS011;37613;51.788;21.582;2022-10-26T05:30:03;22.50;;;16.10;;
51529;SDS011;37613;51.788;21.582;2022-10-26T05:34:05;25.50;;;16.80;;
51529;SDS011;37613;51.788;21.582;2022-10-26T05:38:08;27.90;;;17.30;;
51529;SDS011;37613;51.788;21.582;2022-10-26T05:42:14;32.00;;;20.00;;
51529;SDS011;37613;51.788;21.582;2022-10-26T05:46:16;32.10;;;21.10;;
51529;SDS011;37613;51.788;21.582;2022-10-26T05:50:18;37.70;;;23.30;;
51529;SDS011;37613;51.788;21.582;2022-10-26T05:54:20;46.60;;;31.00;;
51529;SDS011;37613;51.788;21.582;2022-10-26T05:58:22;44.80;;;28.30;;
51529;SDS011;37613;51.788;21.582;2022-10-26T06:02:27;41.00;;;26.90;;
51529;SDS011;37613;51.788;21.582;2022-10-26T06:06:41;42.20;;;25.00;;
51529;SDS011;37613;51.788;21.582;2022-10-26T06:10:46;46.70;;;26.20;;
51529;SDS011;37613;51.788;21.582;2022-10-26T06:14:48;43.70;;;27.20;;
51529;SDS011;37613;51.788;21.582;2022-10-26T06:19:01;39.30;;;25.90;;
51529;SDS011;37613;51.788;21.582;2022-10-26T06:27:28;48.00;;;28.40;;
51529;SDS011;37613;51.788;21.582;2022-10-26T06:31:42;46.30;;;27.70;;
51529;SDS011;37613;51.788;21.582;2022-10-26T06:36:02;50.20;;;26.20;;
51529;SDS011;37613;51.788;21.582;2022-10-26T06:40:24;53.50;;;26.80;;
51529;SDS011;37613;51.788;21.582;2022-10-26T06:44:27;50.90;;;27.20;;
51529;SDS011;37613;51.788;21.582;2022-10-26T06:48:29;52.90;;;27.40;;
51529;SDS011;37613;51.788;21.582;2022-10-26T06:52:45;47.20;;;25.60;;
51529;SDS011;37613;51.788;21.582;2022-10-26T06:56:57;44.80;;;24.00;;
51529;SDS011;37613;51.788;21.582;2022-10-26T07:00:59;48.10;;;24.40;;
51529;SDS011;37613;51.788;21.582;2022-10-26T07:05:01;42.20;;;22.10;;
51529;SDS011;37613;51.788;21.582;2022-10-26T07:09:04;30.90;;;19.30;;
51529;SDS011;37613;51.788;21.582;2022-10-26T07:13:06;32.30;;;18.20;;
51529;SDS011;37613;51.788;21.582;2022-10-26T07:17:11;25.30;;;16.60;;
51529;SDS011;37613;51.788;21.582;2022-10-26T07:21:13;31.30;;;17.20;;
51529;SDS011;37613;51.788;21.582;2022-10-26T07:25:15;36.20;;;19.60;;
51529;SDS011;37613;51.788;21.582;2022-10-26T07:29:17;31.60;;;19.80;;
51529;SDS011;37613;51.788;21.582;2022-10-26T07:33:19;34.90;;;22.30;;
51529;SDS011;37613;51.788;21.582;2022-10-26T07:37:21;46.50;;;28.70;;
51529;SDS011;37613;51.788;21.582;2022-10-26T07:41:23;37.50;;;21.90;;
51529;SDS011;37613;51.788;21.582;2022-10-26T07:45:25;27.30;;;16.50;;
51529;SDS011;37613;51.788;21.582;2022-10-26T07:49:29;27.10;;;17.80;;
51529;SDS011;37613;51.788;21.582;2022-10-26T07:53:31;32.00;;;18.60;;
51529;SDS011;37613;51.788;21.582;2022-10-26T07:57:33;25.80;;;17.00;;
51529;SDS011;37613;51.788;21.582;2022-10-26T08:01:35;25.10;;;16.80;;
51529;SDS011;37613;51.788;21.582;2022-10-26T08:05:37;28.20;;;16.70;;
51529;SDS011;37613;51.788;21.582;2022-10-26T08:09:39;30.40;;;21.10;;
51529;SDS011;37613;51.788;21.582;2022-10-26T08:13:41;102.90;;;59.50;;
51529;SDS011;37613;51.788;21.582;2022-10-26T08:17:43;39.40;;;22.30;;
51529;SDS011;37613;51.788;21.582;2022-10-26T08:21:45;62.20;;;41.00;;
51529;SDS011;37613;51.788;21.582;2022-10-26T08:25:47;34.70;;;23.90;;
51529;SDS011;37613;51.788;21.582;2022-10-26T08:29:49;44.10;;;26.10;;
51529;SDS011;37613;51.788;21.582;2022-10-26T08:33:50;34.90;;;26.20;;
51529;SDS011;37613;51.788;21.582;2022-10-26T08:37:52;27.10;;;18.70;;
51529;SDS011;37613;51.788;21.582;2022-10-26T08:42:02;34.30;;;20.40;;
51529;SDS011;37613;51.788;21.582;2022-10-26T08:46:16;29.80;;;18.60;;
51529;SDS011;37613;51.788;21.582;2022-10-26T08:50:30;34.70;;;19.10;;
51529;SDS011;37613;51.788;21.582;2022-10-26T08:59:12;25.30;;;15.60;;
51529;SDS011;37613;51.788;21.582;2022-10-26T09:03:28;24.40;;;16.20;;
51529;SDS011;37613;51.788;21.582;2022-10-26T09:07:35;28.30;;;18.30;;
51529;SDS011;37613;51.788;21.582;2022-10-26T09:20:38;25.70;;;16.80;;
51529;SDS011;37613;51.788;21.582;2022-10-26T09:24:53;24.50;;;15.30;;
51529;SDS011;37613;51.788;21.582;2022-10-26T09:28:58;39.40;;;25.40;;
51529;SDS011;37613;51.788;21.582;2022-10-26T09:33:24;24.00;;;15.70;;
51529;SDS011;37613;51.788;21.582;2022-10-26T09:37:30;25.30;;;15.60;;
51529;SDS011;37613;51.788;21.582;2022-10-26T09:41:48;19.80;;;12.80;;
51529;SDS011;37613;51.788;21.582;2022-10-26T09:45:56;21.70;;;14.20;;
51529;SDS011;37613;51.788;21.582;2022-10-26T09:50:04;20.00;;;15.00;;
51529;SDS011;37613;51.788;21.582;2022-10-26T09:54:18;20.50;;;13.70;;
51529;SDS011;37613;51.788;21.582;2022-10-26T09:58:24;18.00;;;13.10;;
51529;SDS011;37613;51.788;21.582;2022-10-26T10:06:37;21.60;;;14.10;;
51529;SDS011;37613;51.788;21.582;2022-10-26T10:11:18;19.80;;;12.70;;
51529;SDS011;37613;51.788;21.582;2022-10-26T10:15:18;21.00;;;12.00;;
51529;SDS011;37613;51.788;21.582;2022-10-26T10:19:26;19.80;;;12.10;;
51529;SDS011;37613;51.788;21.582;2022-10-26T10:23:31;21.20;;;12.90;;
51529;SDS011;37613;51.788;21.582;2022-10-26T10:27:35;19.20;;;11.70;;
51529;SDS011;37613;51.788;21.582;2022-10-26T10:31:37;16.60;;;10.50;;
51529;SDS011;37613;51.788;21.582;2022-10-26T10:35:45;17.90;;;11.30;;
51529;SDS011;37613;51.788;21.582;2022-10-26T10:39:54;13.70;;;10.10;;
51529;SDS011;37613;51.788;21.582;2022-10-26T10:48:47;16.30;;;10.70;;
51529;SDS011;37613;51.788;21.582;2022-10-26T10:57:30;21.60;;;11.70;;
51529;SDS011;37613;51.788;21.582;2022-10-26T11:01:53;23.20;;;13.30;;
51529;SDS011;37613;51.788;21.582;2022-10-26T11:06:21;20.90;;;11.90;;
51529;SDS011;37613;51.788;21.582;2022-10-26T11:10:29;19.80;;;12.80;;
51529;SDS011;37613;51.788;21.582;2022-10-26T11:14:58;21.00;;;14.30;;
51529;SDS011;37613;51.788;21.582;2022-10-26T11:23:22;18.00;;;10.70;;
51529;SDS011;37613;51.788;21.582;2022-10-26T11:27:38;21.80;;;11.20;;
51529;SDS011;37613;51.788;21.582;2022-10-26T11:32:12;14.60;;;9.80;;
51529;SDS011;37613;51.788;21.582;2022-10-26T11:36:20;17.80;;;10.70;;
51529;SDS011;37613;51.788;21.582;2022-10-26T11:44:38;15.50;;;9.20;;
51529;SDS011;37613;51.788;21.582;2022-10-26T11:48:46;16.60;;;9.60;;
51529;SDS011;37613;51.788;21.582;2022-10-26T11:53:09;15.40;;;9.80;;
51529;SDS011;37613;51.788;21.582;2022-10-26T11:57:15;14.10;;;10.10;;
51529;SDS011;37613;51.788;21.582;2022-10-26T12:01:17;13.80;;;9.10;;
51529;SDS011;37613;51.788;21.582;2022-10-26T12:09:40;14.20;;;9.10;;
51529;SDS011;37613;51.788;21.582;2022-10-26T12:13:49;16.00;;;9.40;;
51529;SDS011;37613;51.788;21.582;2022-10-26T12:18:00;13.70;;;8.90;;
51529;SDS011;37613;51.788;21.582;2022-10-26T12:22:14;14.80;;;8.70;;
51529;SDS011;37613;51.788;21.582;2022-10-26T12:30:24;20.10;;;9.50;;
51529;SDS011;37613;51.788;21.582;2022-10-26T12:42:39;12.00;;;7.70;;
51529;SDS011;37613;51.788;21.582;2022-10-26T12:46:42;15.00;;;8.30;;
51529;SDS011;37613;51.788;21.582;2022-10-26T12:50:45;16.00;;;8.60;;
51529;SDS011;37613;51.788;21.582;2022-10-26T12:54:52;16.60;;;8.60;;
51529;SDS011;37613;51.788;21.582;2022-10-26T12:59:19;17.60;;;8.70;;
51529;SDS011;37613;51.788;21.582;2022-10-26T13:03:32;16.30;;;9.30;;
51529;SDS011;37613;51.788;21.582;2022-10-26T13:07:41;13.30;;;9.20;;
51529;SDS011;37613;51.788;21.582;2022-10-26T13:11:47;13.10;;;7.70;;
51529;SDS011;37613;51.788;21.582;2022-10-26T13:20:22;8.90;;;6.40;;
51529;SDS011;37613;51.788;21.582;2022-10-26T13:24:25;18.00;;;8.00;;
51529;SDS011;37613;51.788;21.582;2022-10-26T13:28:32;9.70;;;6.40;;
51529;SDS011;37613;51.788;21.582;2022-10-26T13:33:02;11.50;;;6.60;;
51529;SDS011;37613;51.788;21.582;2022-10-26T13:37:17;13.50;;;6.90;;
51529;SDS011;37613;51.788;21.582;2022-10-26T13:41:29;16.10;;;7.20;;
51529;SDS011;37613;51.788;21.582;2022-10-26T13:45:46;20.00;;;12.90;;
51529;SDS011;37613;51.788;21.582;2022-10-26T13:49:57;10.40;;;6.60;;
51529;SDS011;37613;51.788;21.582;2022-10-26T13:54:27;11.00;;;5.90;;
51529;SDS011;37613;51.788;21.582;2022-10-26T13:58:51;12.50;;;7.40;;
51529;SDS011;37613;51.788;21.582;2022-10-26T14:02:58;13.70;;;7.30;;
51529;SDS011;37613;51.788;21.582;2022-10-26T14:07:00;11.40;;;7.50;;
51529;SDS011;37613;51.788;21.582;2022-10-26T14:11:02;18.40;;;9.30;;
51529;SDS011;37613;51.788;21.582;2022-10-26T14:15:05;12.50;;;7.20;;
51529;SDS011;37613;51.788;21.582;2022-10-26T14:19:12;18.20;;;8.80;;
51529;SDS011;37613;51.788;21.582;2022-10-26T14:23:32;13.60;;;7.40;;
51529;SDS011;37613;51.788;21.582;2022-10-26T14:27:37;10.50;;;6.40;;
51529;SDS011;37613;51.788;21.582;2022-10-26T14:31:40;11.70;;;7.00;;
51529;SDS011;37613;51.788;21.582;2022-10-26T14:35:42;13.20;;;6.80;;
51529;SDS011;37613;51.788;21.582;2022-10-26T14:39:44;12.50;;;7.00;;
51529;SDS011;37613;51.788;21.582;2022-10-26T14:43:50;14.40;;;6.60;;
51529;SDS011;37613;51.788;21.582;2022-10-26T14:47:54;11.50;;;6.50;;
51529;SDS011;37613;51.788;21.582;2022-10-26T14:51:58;11.60;;;6.30;;
51529;SDS011;37613;51.788;21.582;2022-10-26T14:56:05;8.80;;;5.90;;
51529;SDS011;37613;51.788;21.582;2022-10-26T15:00:22;13.00;;;6.50;;
51529;SDS011;37613;51.788;21.582;2022-10-26T15:04:33;16.10;;;8.70;;
51529;SDS011;37613;51.788;21.582;2022-10-26T15:08:44;15.30;;;8.30;;
51529;SDS011;37613;51.788;21.582;2022-10-26T15:12:47;27.40;;;16.70;;
51529;SDS011;37613;51.788;21.582;2022-10-26T15:16:50;15.80;;;8.70;;
51529;SDS011;37613;51.788;21.582;2022-10-26T15:20:55;14.90;;;8.90;;
51529;SDS011;37613;51.788;21.582;2022-10-26T15:25:00;24.80;;;14.50;;
51529;SDS011;37613;51.788;21.582;2022-10-26T15:33:41;16.20;;;8.40;;
51529;SDS011;37613;51.788;21.582;2022-10-26T15:37:53;22.00;;;7.60;;
51529;SDS011;37613;51.788;21.582;2022-10-26T15:41:57;15.20;;;7.80;;
51529;SDS011;37613;51.788;21.582;2022-10-26T15:46:00;21.40;;;10.30;;
51529;SDS011;37613;51.788;21.582;2022-10-26T15:50:02;16.80;;;9.20;;
51529;SDS011;37613;51.788;21.582;2022-10-26T15:54:05;13.60;;;9.30;;
51529;SDS011;37613;51.788;21.582;2022-10-26T15:58:08;15.30;;;8.70;;
51529;SDS011;37613;51.788;21.582;2022-10-26T16:02:12;17.80;;;11.00;;
51529;SDS011;37613;51.788;21.582;2022-10-26T16:06:37;26.80;;;16.10;;
51529;SDS011;37613;51.788;21.582;2022-10-26T16:10:39;19.40;;;12.10;;
51529;SDS011;37613;51.788;21.582;2022-10-26T16:14:41;20.50;;;12.90;;
51529;SDS011;37613;51.788;21.582;2022-10-26T16:18:44;28.60;;;16.40;;
51529;SDS011;37613;51.788;21.582;2022-10-26T16:22:47;20.40;;;13.90;;
51529;SDS011;37613;51.788;21.582;2022-10-26T16:26:50;33.10;;;20.40;;
51529;SDS011;37613;51.788;21.582;2022-10-26T16:30:57;50.40;;;34.20;;
51529;SDS011;37613;51.788;21.582;2022-10-26T16:35:03;105.70;;;65.00;;
51529;SDS011;37613;51.788;21.582;2022-10-26T16:39:05;103.80;;;68.00;;
51529;SDS011;37613;51.788;21.582;2022-10-26T16:43:07;116.00;;;73.40;;
51529;SDS011;37613;51.788;21.582;2022-10-26T16:47:14;107.70;;;70.90;;
51529;SDS011;37613;51.788;21.582;2022-10-26T16:51:21;130.60;;;82.80;;
51529;SDS011;37613;51.788;21.582;2022-10-26T16:55:24;142.70;;;92.10;;
51529;SDS011;37613;51.788;21.582;2022-10-26T16:59:27;138.00;;;87.70;;
51529;SDS011;37613;51.788;21.582;2022-10-26T17:03:29;117.90;;;78.90;;
51529;SDS011;37613;51.788;21.582;2022-10-26T17:07:31;115.80;;;77.40;;
51529;SDS011;37613;51.788;21.582;2022-10-26T17:11:33;109.70;;;71.30;;
51529;SDS011;37613;51.788;21.582;2022-10-26T17:15:36;99.70;;;67.80;;
51529;SDS011;37613;51.788;21.582;2022-10-26T17:19:40;100.30;;;66.70;;
51529;SDS011;37613;51.788;21.582;2022-10-26T17:23:48;93.50;;;62.60;;
51529;SDS011;37613;51.788;21.582;2022-10-26T17:27:50;94.70;;;59.40;;
51529;SDS011;37613;51.788;21.582;2022-10-26T17:31:52;91.80;;;58.70;;
51529;SDS011;37613;51.788;21.582;2022-10-26T17:35:55;67.10;;;46.40;;
51529;SDS011;37613;51.788;21.582;2022-10-26T17:39:58;67.20;;;44.90;;
51529;SDS011;37613;51.788;21.582;2022-10-26T17:44:00;69.10;;;47.10;;
51529;SDS011;37613;51.788;21.582;2022-10-26T17:48:03;87.50;;;56.70;;
51529;SDS011;37613;51.788;21.582;2022-10-26T17:52:06;97.90;;;59.80;;
51529;SDS011;37613;51.788;21.582;2022-10-26T17:56:12;98.60;;;61.00;;
51529;SDS011;37613;51.788;21.582;2022-10-26T18:00:19;97.70;;;60.80;;
51529;SDS011;37613;51.788;21.582;2022-10-26T18:04:22;98.70;;;59.70;;
51529;SDS011;37613;51.788;21.582;2022-10-26T18:08:29;134.60;;;82.50;;
51529;SDS011;37613;51.788;21.582;2022-10-26T18:12:32;144.90;;;82.00;;
51529;SDS011;37613;51.788;21.582;2022-10-26T18:16:35;94.00;;;60.20;;
51529;SDS011;37613;51.788;21.582;2022-10-26T18:20:37;95.30;;;57.20;;
51529;SDS011;37613;51.788;21.582;2022-10-26T18:24:40;84.00;;;53.80;;
51529;SDS011;37613;51.788;21.582;2022-10-26T18:28:43;97.60;;;59.70;;
51529;SDS011;37613;51.788;21.582;2022-10-26T18:32:47;87.20;;;54.60;;
51529;SDS011;37613;51.788;21.582;2022-10-26T18:36:52;92.60;;;61.20;;
51529;SDS011;37613;51.788;21.582;2022-10-26T18:40:54;93.20;;;55.90;;
51529;SDS011;37613;51.788;21.582;2022-10-26T18:44:57;92.90;;;57.10;;
51529;SDS011;37613;51.788;21.582;2022-10-26T18:49:03;117.00;;;72.30;;
51529;SDS011;37613;51.788;21.582;2022-10-26T18:53:07;93.40;;;58.60;;
51529;SDS011;37613;51.788;21.582;2022-10-26T18:57:13;87.40;;;54.80;;
51529;SDS011;37613;51.788;21.582;2022-10-26T19:01:17;97.60;;;61.60;;
51529;SDS011;37613;51.788;21.582;2022-10-26T19:05:26;117.80;;;70.10;;
51529;SDS011;37613;51.788;21.582;2022-10-26T19:09:31;110.80;;;76.30;;
51529;SDS011;37613;51.788;21.582;2022-10-26T19:13:37;117.70;;;75.10;;
51529;SDS011;37613;51.788;21.582;2022-10-26T19:17:40;125.60;;;77.80;;
51529;SDS011;37613;51.788;21.582;2022-10-26T19:21:43;152.20;;;89.80;;
51529;SDS011;37613;51.788;21.582;2022-10-26T19:25:52;142.10;;;88.30;;
51529;SDS011;37613;51.788;21.582;2022-10-26T19:29:57;262.50;;;148.40;;
51529;SDS011;37613;51.788;21.582;2022-10-26T19:38:02;299.20;;;166.70;;
51529;SDS011;37613;51.788;21.582;2022-10-26T19:42:05;289.00;;;165.60;;
51529;SDS011;37613;51.788;21.582;2022-10-26T19:46:11;234.10;;;142.70;;
51529;SDS011;37613;51.788;21.582;2022-10-26T19:50:16;273.90;;;156.90;;
51529;SDS011;37613;51.788;21.582;2022-10-26T19:54:21;258.70;;;154.30;;
51529;SDS011;37613;51.788;21.582;2022-10-26T19:58:24;274.60;;;160.40;;
51529;SDS011;37613;51.788;21.582;2022-10-26T20:02:28;289.70;;;165.20;;
51529;SDS011;37613;51.788;21.582;2022-10-26T20:06:31;301.40;;;161.90;;
51529;SDS011;37613;51.788;21.582;2022-10-26T20:10:34;324.70;;;152.80;;
51529;SDS011;37613;51.788;21.582;2022-10-26T20:14:41;293.50;;;136.60;;
51529;SDS011;37613;51.788;21.582;2022-10-26T20:18:43;318.80;;;153.90;;
51529;SDS011;37613;51.788;21.582;2022-10-26T20:22:46;261.80;;;141.40;;
51529;SDS011;37613;51.788;21.582;2022-10-26T20:26:49;260.00;;;132.70;;
51529;SDS011;37613;51.788;21.582;2022-10-26T20:30:51;243.30;;;123.80;;
51529;SDS011;37613;51.788;21.582;2022-10-26T20:34:57;255.00;;;140.60;;
51529;SDS011;37613;51.788;21.582;2022-10-26T20:38:59;227.50;;;121.00;;
51529;SDS011;37613;51.788;21.582;2022-10-26T20:43:03;226.10;;;112.00;;
51529;SDS011;37613;51.788;21.582;2022-10-26T20:47:09;255.40;;;124.30;;
51529;SDS011;37613;51.788;21.582;2022-10-26T20:51:16;235.10;;;122.00;;
51529;SDS011;37613;51.788;21.582;2022-10-26T20:55:35;239.00;;;121.60;;
51529;SDS011;37613;51.788;21.582;2022-10-26T20:59:46;225.30;;;115.50;;
51529;SDS011;37613;51.788;21.582;2022-10-26T21:03:54;185.90;;;94.20;;
51529;SDS011;37613;51.788;21.582;2022-10-26T21:07:58;197.10;;;91.50;;
51529;SDS011;37613;51.788;21.582;2022-10-26T21:12:00;188.80;;;95.00;;
51529;SDS011;37613;51.788;21.582;2022-10-26T21:16:04;210.40;;;100.30;;
51529;SDS011;37613;51.788;21.582;2022-10-26T21:20:07;189.80;;;88.10;;
51529;SDS011;37613;51.788;21.582;2022-10-26T21:24:09;173.90;;;89.50;;
51529;SDS011;37613;51.788;21.582;2022-10-26T21:28:11;205.50;;;99.60;;
51529;SDS011;37613;51.788;21.582;2022-10-26T21:32:13;198.40;;;97.50;;
51529;SDS011;37613;51.788;21.582;2022-10-26T21:36:15;169.10;;;85.40;;
51529;SDS011;37613;51.788;21.582;2022-10-26T21:40:17;174.30;;;87.80;;
51529;SDS011;37613;51.788;21.582;2022-10-26T21:44:19;146.40;;;74.90;;
51529;SDS011;37613;51.788;21.582;2022-10-26T21:48:21;142.90;;;71.80;;
51529;SDS011;37613;51.788;21.582;2022-10-26T21:52:23;127.80;;;71.50;;
51529;SDS011;37613;51.788;21.582;2022-10-26T21:56:26;127.40;;;71.00;;
51529;SDS011;37613;51.788;21.582;2022-10-26T22:00:27;111.20;;;59.80;;
51529;SDS011;37613;51.788;21.582;2022-10-26T22:04:29;101.80;;;59.20;;
51529;SDS011;37613;51.788;21.582;2022-10-26T22:08:32;99.50;;;56.10;;
51529;SDS011;37613;51.788;21.582;2022-10-26T22:16:37;87.90;;;49.00;;
51529;SDS011;37613;51.788;21.582;2022-10-26T22:20:39;99.60;;;53.40;;
51529;SDS011;37613;51.788;21.582;2022-10-26T22:24:41;98.40;;;52.40;;
51529;SDS011;37613;51.788;21.582;2022-10-26T22:28:43;90.30;;;50.90;;
51529;SDS011;37613;51.788;21.582;2022-10-26T22:32:47;80.90;;;44.60;;
51529;SDS011;37613;51.788;21.582;2022-10-26T22:36:49;80.50;;;44.00;;
51529;SDS011;37613;51.788;21.582;2022-10-26T22:40:54;71.70;;;41.80;;
51529;SDS011;37613;51.788;21.582;2022-10-26T22:44:57;82.20;;;43.10;;
51529;SDS011;37613;51.788;21.582;2022-10-26T22:48:59;76.60;;;43.90;;
51529;SDS011;37613;51.788;21.582;2022-10-26T22:53:03;77.10;;;42.10;;
51529;SDS011;37613;51.788;21.582;2022-10-26T23:01:08;64.00;;;38.00;;
51529;SDS011;37613;51.788;21.582;2022-10-26T23:05:12;73.80;;;44.30;;
51529;SDS011;37613;51.788;21.582;2022-10-26T23:09:17;82.50;;;45.40;;
51529;SDS011;37613;51.788;21.582;2022-10-26T23:13:19;68.60;;;39.70;;
51529;SDS011;37613;51.788;21.582;2022-10-26T23:17:21;83.60;;;45.70;;
51529;SDS011;37613;51.788;21.582;2022-10-26T23:21:23;75.60;;;43.40;;
51529;SDS011;37613;51.788;21.582;2022-10-26T23:25:26;66.80;;;43.70;;
51529;SDS011;37613;51.788;21.582;2022-10-26T23:29:28;74.90;;;46.00;;
51529;SDS011;37613;51.788;21.582;2022-10-26T23:33:30;69.40;;;40.10;;
51529;SDS011;37613;51.788;21.582;2022-10-26T23:37:32;64.40;;;40.70;;
51529;SDS011;37613;51.788;21.582;2022-10-26T23:41:34;67.00;;;39.80;;
51529;SDS011;37613;51.788;21.582;2022-10-26T23:45:39;66.70;;;38.20;;
51529;SDS011;37613;51.788;21.582;2022-10-26T23:49:42;71.10;;;39.20;;
51529;SDS011;37613;51.788;21.582;2022-10-26T23:53:44;81.90;;;43.40;;
51529;SDS011;37613;51.788;21.582;2022-10-26T23:57:46;77.60;;;41.30;;
